createdAt,value
2023-02-14T00:01:38.445Z,2.32
2023-02-14T00:06:41.755Z,2.29
2023-02-14T00:11:45.282Z,2.25
2023-02-14T00:16:48.012Z,2.18
2023-02-14T00:21:51.854Z,2.13
2023-02-14T00:26:55.683Z,2.08
2023-02-14T00:32:01.481Z,2.04
2023-02-14T00:37:05.516Z,2.05
2023-02-14T00:42:08.067Z,2.04
2023-02-14T00:47:10.638Z,2.00
2023-02-14T00:52:14.195Z,1.94
2023-02-14T00:57:20.431Z,1.85
2023-02-14T01:02:23.003Z,1.76
2023-02-14T01:07:25.763Z,1.72
2023-02-14T01:12:28.444Z,1.70
2023-02-14T01:17:31.176Z,1.70
2023-02-14T01:22:37.653Z,1.70
2023-02-14T01:27:40.597Z,1.72
2023-02-14T01:32:43.937Z,1.71
2023-02-14T01:37:46.504Z,1.68
2023-02-14T01:42:49.106Z,1.68
2023-02-14T01:47:54.590Z,1.67
2023-02-14T01:53:07.726Z,1.65
2023-02-14T01:58:23.026Z,1.63
2023-02-14T02:03:49.106Z,1.62
2023-02-14T02:09:02.922Z,1.65
2023-02-14T02:14:16.022Z,1.64
2023-02-14T02:19:21.635Z,1.62
2023-02-14T02:24:36.862Z,1.56
2023-02-14T02:30:11.442Z,1.49
2023-02-14T02:35:19.974Z,1.43
2023-02-14T02:40:44.988Z,1.35
2023-02-14T02:46:14.594Z,1.33
2023-02-14T02:51:45.525Z,1.36
2023-02-14T02:56:56.850Z,1.41
2023-02-14T03:02:20.964Z,1.47
2023-02-14T03:07:45.245Z,1.59
2023-02-14T03:13:03.754Z,1.70
2023-02-14T03:18:51.118Z,1.80
2023-02-14T03:23:56.391Z,1.88
2023-02-14T03:29:09.357Z,1.92
2023-02-14T03:34:32.121Z,1.91
2023-02-14T03:40:06.789Z,1.90
2023-02-14T03:45:13.713Z,1.91
2023-02-14T03:50:19.857Z,1.94
2023-02-14T03:55:37.497Z,2.01
2023-02-14T04:00:42.131Z,2.10
2023-02-14T04:05:52.102Z,2.18
2023-02-14T04:10:58.104Z,2.23
2023-02-14T04:16:01.040Z,2.29
2023-02-14T04:21:04.546Z,2.34
2023-02-14T04:26:07.445Z,2.39
2023-02-14T04:31:12.396Z,2.43
2023-02-14T04:36:15.059Z,2.49
2023-02-14T04:41:17.660Z,2.53
2023-02-14T04:46:20.293Z,2.54
2023-02-14T04:51:22.915Z,2.58
2023-02-14T04:56:27.048Z,2.62
2023-02-14T05:01:29.623Z,2.66
2023-02-14T05:06:32.931Z,2.72
2023-02-14T05:11:35.515Z,2.70
2023-02-14T05:16:38.731Z,2.68
2023-02-14T05:21:41.361Z,2.72
2023-02-14T05:26:43.942Z,2.77
2023-02-14T05:31:46.627Z,2.79
2023-02-14T05:36:49.291Z,2.80
2023-02-14T05:41:51.867Z,2.83
2023-02-14T05:46:55.094Z,2.86
2023-02-14T05:51:57.642Z,2.90
2023-02-14T05:57:00.187Z,2.94
2023-02-14T06:02:02.888Z,2.97
2023-02-14T06:07:06.025Z,2.99
2023-02-14T06:12:08.628Z,2.99
2023-02-14T06:17:11.642Z,3.01
2023-02-14T06:22:14.374Z,3.01
2023-02-14T06:27:17.229Z,3.06
2023-02-14T06:32:19.983Z,3.11
2023-02-14T06:37:22.795Z,3.15
2023-02-14T06:42:25.412Z,3.20
2023-02-14T06:47:28.584Z,3.25
2023-02-14T06:52:32.618Z,3.32
2023-02-14T06:57:35.212Z,3.39
2023-02-14T07:02:37.817Z,3.46
2023-02-14T07:07:40.592Z,3.50
2023-02-14T07:12:43.306Z,3.56
2023-02-14T07:17:45.936Z,3.60
2023-02-14T07:22:48.612Z,3.61
2023-02-14T07:27:51.199Z,3.60
2023-02-14T07:32:53.889Z,3.63
2023-02-14T07:37:56.457Z,3.68
2023-02-14T07:43:00.702Z,3.77
2023-02-14T07:48:04.211Z,3.80
2023-02-14T07:53:08.482Z,3.87
2023-02-14T07:58:11.088Z,3.95
2023-02-14T08:03:14.127Z,4.01
2023-02-14T08:08:16.727Z,4.03
2023-02-14T08:13:21.757Z,4.01
2023-02-14T08:18:24.443Z,4.05
2023-02-14T08:23:27.251Z,4.08
2023-02-14T08:28:29.886Z,4.15
2023-02-14T08:33:32.759Z,4.16
2023-02-14T08:38:36.459Z,4.17
2023-02-14T08:43:39.097Z,4.28
2023-02-14T08:48:41.653Z,4.36
2023-02-14T08:53:45.137Z,4.38
2023-02-14T08:58:48.195Z,4.42
2023-02-14T09:03:50.898Z,4.51
2023-02-14T09:08:54.979Z,4.58
2023-02-14T09:13:57.932Z,4.65
2023-02-14T09:19:00.693Z,4.74
2023-02-14T09:24:03.666Z,4.81
2023-02-14T09:29:06.656Z,4.86
2023-02-14T09:34:09.426Z,4.95
2023-02-14T09:39:12.353Z,5.06
2023-02-14T09:44:23.571Z,5.22
2023-02-14T09:49:36.023Z,5.35
2023-02-14T09:54:42.475Z,5.43
2023-02-14T09:59:54.999Z,5.49
2023-02-14T10:05:13.312Z,5.52
2023-02-14T10:10:39.466Z,5.44
2023-02-14T10:15:50.967Z,5.48
2023-02-14T10:20:59.444Z,5.67
2023-02-14T10:26:04.499Z,5.92
2023-02-14T10:31:25.493Z,6.00
2023-02-14T10:36:31.534Z,6.09
2023-02-14T10:41:39.901Z,6.23
2023-02-14T10:47:19.825Z,6.41
2023-02-14T10:52:34.268Z,6.64
2023-02-14T10:57:48.132Z,7.00
2023-02-14T11:02:56.471Z,7.22
2023-02-14T11:07:59.855Z,7.31
2023-02-14T11:13:02.604Z,7.37
2023-02-14T11:18:22.889Z,7.38
2023-02-14T11:23:25.924Z,7.01
2023-02-14T11:28:28.563Z,6.90
2023-02-14T11:33:50.690Z,7.05
2023-02-14T11:39:22.244Z,7.15
2023-02-14T11:44:28.351Z,7.08
2023-02-14T11:49:34.677Z,6.93
2023-02-14T11:54:41.729Z,6.69
2023-02-14T11:59:52.586Z,6.74
2023-02-14T12:04:59.773Z,6.97
2023-02-14T12:10:15.684Z,7.05
2023-02-14T12:15:26.790Z,7.06
2023-02-14T12:21:01.566Z,7.05
2023-02-14T12:26:22.290Z,6.91
2023-02-14T12:31:26.876Z,6.84
2023-02-14T12:36:46.390Z,6.82
2023-02-14T12:42:21.543Z,6.72
2023-02-14T12:47:42.653Z,6.64
2023-02-14T12:52:45.190Z,6.61
2023-02-14T12:58:05.624Z,6.58
2023-02-14T13:03:08.530Z,6.54
2023-02-14T13:08:43.937Z,6.58
2023-02-14T13:14:20.587Z,6.73
2023-02-14T13:19:45.087Z,6.74
2023-02-14T13:24:51.982Z,6.89
2023-02-14T13:29:59.900Z,7.07
2023-02-14T13:35:15.231Z,7.13
2023-02-14T13:40:23.895Z,7.32
2023-02-14T13:45:29.499Z,8.09
2023-02-14T13:50:39.179Z,8.30
2023-02-14T13:55:47.420Z,8.14
2023-02-14T14:00:56.248Z,8.03
2023-02-14T14:06:05.327Z,7.96
2023-02-14T14:11:34.149Z,7.95
2023-02-14T14:16:38.222Z,7.95
2023-02-14T14:22:00.129Z,8.34
2023-02-14T14:27:04.276Z,8.96
2023-02-14T14:32:12.170Z,9.03
2023-02-14T14:37:20.706Z,8.68
2023-02-14T14:42:27.799Z,8.34
2023-02-14T14:47:46.768Z,8.01
2023-02-14T14:52:54.245Z,7.66
2023-02-14T14:58:00.042Z,7.46
2023-02-14T15:03:14.867Z,7.40
2023-02-14T15:08:22.803Z,7.35
2023-02-14T15:13:50.953Z,7.18
2023-02-14T15:18:59.103Z,6.98
2023-02-14T15:24:03.204Z,6.79
2023-02-14T15:29:07.363Z,6.60
2023-02-14T15:34:10.496Z,6.39
2023-02-14T15:39:19.497Z,6.20
2023-02-14T15:44:24.272Z,6.07
2023-02-14T15:49:46.492Z,5.95
2023-02-14T15:54:49.083Z,5.84
2023-02-14T15:59:52.173Z,5.74
2023-02-14T16:05:01.662Z,5.61
2023-02-14T16:10:20.309Z,5.53
2023-02-14T16:15:25.552Z,5.51
2023-02-14T16:20:30.255Z,5.44
2023-02-14T16:25:32.882Z,5.33
2023-02-14T16:30:36.805Z,5.24
2023-02-14T16:35:39.931Z,5.18
2023-02-14T16:40:45.075Z,5.09
2023-02-14T16:45:48.155Z,4.97
2023-02-14T16:50:51.001Z,4.86
2023-02-14T16:55:55.927Z,4.80
2023-02-14T17:00:59.225Z,4.77
2023-02-14T17:06:02.896Z,4.79
2023-02-14T17:11:05.987Z,4.76
2023-02-14T17:16:11.891Z,4.64
2023-02-14T17:21:16.624Z,4.47
2023-02-14T17:26:20.083Z,4.29
2023-02-14T17:31:22.761Z,4.09
2023-02-14T17:36:25.402Z,3.91
2023-02-14T17:41:29.280Z,3.78
2023-02-14T17:46:33.596Z,3.66
2023-02-14T17:51:36.269Z,3.55
2023-02-14T17:56:38.884Z,3.52
2023-02-14T18:01:41.740Z,3.59
2023-02-14T18:06:44.384Z,3.65
2023-02-14T18:11:47.468Z,3.58
2023-02-14T18:16:51.060Z,3.55
2023-02-14T18:21:53.729Z,3.58
2023-02-14T18:26:56.488Z,3.61
2023-02-14T18:31:59.142Z,3.66
2023-02-14T18:37:02.838Z,3.71
2023-02-14T18:42:05.889Z,3.76
2023-02-14T18:47:08.509Z,3.83
2023-02-14T18:52:11.351Z,3.88
2023-02-14T18:57:13.940Z,3.93
2023-02-14T19:02:16.694Z,3.93
2023-02-14T19:07:19.511Z,3.96
2023-02-14T19:12:24.260Z,3.98
2023-02-14T19:17:27.477Z,3.99
2023-02-14T19:22:30.046Z,3.98
2023-02-14T19:27:33.988Z,3.97
2023-02-14T19:32:36.558Z,3.98
2023-02-14T19:37:39.179Z,3.96
2023-02-14T19:42:41.775Z,3.93
2023-02-14T19:47:47.312Z,3.92
2023-02-14T19:52:50.864Z,3.87
2023-02-14T19:57:54.208Z,3.86
2023-02-14T20:03:00.779Z,3.90
2023-02-14T20:08:03.588Z,3.96
2023-02-14T20:13:06.196Z,3.99
2023-02-14T20:18:10.558Z,4.07
2023-02-14T20:23:14.139Z,4.13
2023-02-14T20:28:16.776Z,4.16
2023-02-14T20:33:19.644Z,4.18
2023-02-14T20:38:22.621Z,4.16
2023-02-14T20:43:25.241Z,4.13
2023-02-14T20:48:29.331Z,4.10
2023-02-14T20:53:33.198Z,4.07
2023-02-14T20:58:37.648Z,3.99
2023-02-14T21:03:43.340Z,3.88
2023-02-14T21:08:47.061Z,3.85
2023-02-14T21:13:53.893Z,3.90
2023-02-14T21:18:59.336Z,3.95
2023-02-14T21:24:11.791Z,3.98
2023-02-14T21:29:15.619Z,4.00
2023-02-14T21:34:18.277Z,4.04
2023-02-14T21:39:25.490Z,4.09
2023-02-14T21:44:44.159Z,4.14
2023-02-14T21:50:03.138Z,4.15
2023-02-14T21:55:06.200Z,4.10
2023-02-14T22:00:09.322Z,4.03
2023-02-14T22:05:12.325Z,4.03
2023-02-14T22:10:17.989Z,4.04
2023-02-14T22:15:20.708Z,4.08
2023-02-14T22:20:28.676Z,4.11
2023-02-14T22:25:31.512Z,4.13
2023-02-14T22:30:34.381Z,4.11
2023-02-14T22:35:36.939Z,4.10
2023-02-14T22:40:42.136Z,4.05
2023-02-14T22:45:44.839Z,3.98
2023-02-14T22:50:47.477Z,3.98
2023-02-14T22:55:50.118Z,4.00
2023-02-14T23:00:52.703Z,3.96
2023-02-14T23:05:59.237Z,3.99
2023-02-14T23:11:19.932Z,4.01
2023-02-14T23:16:39.754Z,3.96
2023-02-14T23:21:58.240Z,3.92
2023-02-14T23:27:00.997Z,3.88
2023-02-14T23:32:05.420Z,3.87
2023-02-14T23:37:09.948Z,3.85
2023-02-14T23:42:14.759Z,3.81
2023-02-14T23:47:20.618Z,3.78
2023-02-14T23:52:23.164Z,3.79
2023-02-14T23:57:25.816Z,3.83
